createdAt,value
2023-05-14T00:01:27.095Z,52.33
2023-05-14T00:03:55.172Z,53.20
2023-05-14T00:06:23.509Z,53.53
2023-05-14T00:08:51.318Z,55.48
2023-05-14T00:11:21.899Z,55.66
2023-05-14T00:13:50.572Z,55.98
2023-05-14T00:16:18.389Z,57.31
2023-05-14T00:18:48.941Z,56.64
2023-05-14T00:21:17.274Z,55.18
2023-05-14T00:23:45.140Z,56.28
2023-05-14T00:26:15.350Z,56.99
2023-05-14T00:28:45.006Z,57.06
2023-05-14T00:31:13.983Z,56.84
2023-05-14T00:33:41.790Z,57.25
2023-05-14T00:36:11.576Z,57.48
2023-05-14T00:38:39.526Z,57.12
2023-05-14T00:41:08.884Z,57.91
2023-05-14T00:43:37.743Z,58.23
2023-05-14T00:46:06.027Z,58.67
2023-05-14T00:48:34.301Z,59.13
2023-05-14T00:51:02.280Z,58.84
2023-05-14T00:53:30.229Z,58.67
2023-05-14T00:55:58.669Z,58.18
2023-05-14T00:58:26.671Z,58.59
2023-05-14T01:00:55.077Z,57.77
2023-05-14T01:03:23.063Z,57.77
2023-05-14T01:06:18.354Z,58.74
2023-05-14T01:09:08.811Z,59.04
2023-05-14T01:11:47.740Z,59.75
2023-05-14T01:14:40.915Z,60.04
2023-05-14T01:17:12.425Z,60.65
2023-05-14T01:19:45.144Z,61.41
2023-05-14T01:22:13.708Z,61.76
2023-05-14T01:24:41.608Z,62.31
2023-05-14T01:27:35.765Z,62.51
2023-05-14T01:30:12.943Z,63.23
2023-05-14T01:32:44.063Z,63.18
2023-05-14T01:35:12.770Z,62.83
2023-05-14T01:37:42.015Z,62.53
2023-05-14T01:40:11.848Z,62.39
2023-05-14T01:42:41.071Z,62.24
2023-05-14T01:45:10.065Z,61.70
2023-05-14T01:47:38.543Z,61.51
2023-05-14T01:50:06.897Z,62.52
2023-05-14T01:52:35.412Z,63.65
2023-05-14T01:55:05.171Z,65.05
2023-05-14T01:57:33.027Z,65.92
2023-05-14T02:00:00.940Z,65.82
2023-05-14T02:02:30.488Z,63.81
2023-05-14T02:04:58.390Z,62.68
2023-05-14T02:07:26.370Z,61.73
2023-05-14T02:09:54.241Z,60.95
2023-05-14T02:12:22.444Z,60.69
2023-05-14T02:14:50.485Z,60.61
2023-05-14T02:17:18.546Z,60.61
2023-05-14T02:19:46.495Z,60.63
2023-05-14T02:22:14.280Z,60.62
2023-05-14T02:24:42.644Z,60.36
2023-05-14T02:27:12.750Z,60.55
2023-05-14T02:29:40.567Z,60.32
2023-05-14T02:32:08.459Z,60.41
2023-05-14T02:34:36.369Z,60.62
2023-05-14T02:37:04.533Z,61.12
2023-05-14T02:39:32.735Z,61.20
2023-05-14T02:42:01.045Z,61.18
2023-05-14T02:44:28.956Z,61.51
2023-05-14T02:46:56.842Z,61.26
2023-05-14T02:49:25.061Z,61.15
2023-05-14T02:51:54.355Z,61.72
2023-05-14T02:54:22.231Z,62.18
2023-05-14T02:56:50.097Z,62.81
2023-05-14T02:59:17.961Z,63.74
2023-05-14T03:01:46.158Z,63.56
2023-05-14T03:04:14.456Z,63.54
2023-05-14T03:06:42.280Z,63.34
2023-05-14T03:09:10.308Z,63.76
2023-05-14T03:11:38.329Z,63.78
2023-05-14T03:14:06.124Z,65.28
2023-05-14T03:16:34.078Z,65.01
2023-05-14T03:19:01.914Z,64.71
2023-05-14T03:21:31.864Z,65.48
2023-05-14T03:23:59.747Z,65.91
2023-05-14T03:26:27.564Z,65.89
2023-05-14T03:28:55.540Z,65.76
2023-05-14T03:31:23.452Z,65.23
2023-05-14T03:33:51.449Z,65.68
2023-05-14T03:36:19.263Z,66.06
2023-05-14T03:38:48.838Z,66.19
2023-05-14T03:41:18.416Z,65.93
2023-05-14T03:43:46.184Z,65.88
2023-05-14T03:46:13.975Z,65.81
2023-05-14T03:48:42.631Z,65.44
2023-05-14T03:51:10.542Z,65.02
2023-05-14T03:53:38.397Z,65.23
2023-05-14T03:56:07.481Z,64.55
2023-05-14T03:58:35.259Z,64.60
2023-05-14T04:01:03.124Z,64.50
2023-05-14T04:03:32.234Z,64.09
2023-05-14T04:06:00.251Z,63.19
2023-05-14T04:08:28.096Z,62.82
2023-05-14T04:10:57.506Z,62.95
2023-05-14T04:13:25.460Z,62.69
2023-05-14T04:15:53.370Z,62.23
2023-05-14T04:18:21.179Z,62.48
2023-05-14T04:20:50.109Z,62.63
2023-05-14T04:23:17.984Z,62.54
2023-05-14T04:25:45.740Z,62.53
2023-05-14T04:28:13.493Z,62.13
2023-05-14T04:30:41.363Z,61.73
2023-05-14T04:33:09.395Z,61.23
2023-05-14T04:35:38.795Z,60.95
2023-05-14T04:38:06.734Z,60.95
2023-05-14T04:40:34.569Z,60.56
2023-05-14T04:43:02.482Z,59.89
2023-05-14T04:45:32.263Z,59.67
2023-05-14T04:48:04.196Z,59.57
2023-05-14T04:50:32.255Z,59.26
2023-05-14T04:53:00.135Z,58.50
2023-05-14T04:55:28.234Z,58.10
2023-05-14T04:57:56.061Z,57.73
2023-05-14T05:00:24.397Z,56.93
2023-05-14T05:02:52.613Z,55.88
2023-05-14T05:05:20.760Z,55.57
2023-05-14T05:07:48.638Z,54.96
2023-05-14T05:10:16.564Z,55.06
2023-05-14T05:12:44.433Z,55.75
2023-05-14T05:15:12.503Z,55.06
2023-05-14T05:17:40.640Z,55.85
2023-05-14T05:20:10.037Z,55.85
2023-05-14T05:22:37.953Z,55.29
2023-05-14T05:25:06.383Z,56.15
2023-05-14T05:27:34.258Z,56.14
2023-05-14T05:30:02.855Z,56.12
2023-05-14T05:32:31.132Z,56.12
2023-05-14T05:34:58.956Z,56.39
2023-05-14T05:37:26.893Z,56.29
2023-05-14T05:39:54.648Z,56.35
2023-05-14T05:42:22.614Z,56.09
2023-05-14T05:44:50.506Z,55.84
2023-05-14T05:47:18.356Z,55.85
2023-05-14T05:49:46.245Z,55.78
2023-05-14T05:52:14.050Z,55.91
2023-05-14T05:54:41.845Z,55.38
2023-05-14T05:57:09.670Z,54.53
2023-05-14T05:59:37.492Z,54.22
2023-05-14T06:02:05.402Z,53.99
2023-05-14T06:04:33.381Z,54.24
2023-05-14T06:07:01.489Z,53.93
2023-05-14T06:09:29.292Z,53.29
2023-05-14T06:11:57.073Z,53.07
2023-05-14T06:14:25.149Z,53.11
2023-05-14T06:16:53.148Z,52.89
2023-05-14T06:19:22.103Z,52.58
2023-05-14T06:21:50.008Z,51.87
2023-05-14T06:24:19.912Z,52.38
2023-05-14T06:26:49.251Z,51.58
2023-05-14T06:29:17.202Z,51.52
2023-05-14T06:31:45.031Z,51.65
2023-05-14T06:34:13.076Z,52.23
2023-05-14T06:36:40.900Z,52.27
2023-05-14T06:39:08.719Z,53.05
2023-05-14T06:41:36.488Z,53.14
2023-05-14T06:44:04.680Z,52.29
2023-05-14T06:46:32.471Z,51.30
2023-05-14T06:49:00.419Z,50.86
2023-05-14T06:51:28.344Z,51.44
2023-05-14T06:53:56.350Z,48.90
2023-05-14T06:56:24.222Z,47.99
2023-05-14T06:58:52.244Z,47.97
2023-05-14T07:01:20.250Z,48.03
2023-05-14T07:03:48.189Z,48.61
2023-05-14T07:06:16.213Z,47.59
2023-05-14T07:08:47.221Z,47.19
2023-05-14T07:11:15.623Z,47.18
2023-05-14T07:13:43.561Z,47.46
2023-05-14T07:16:11.547Z,47.80
2023-05-14T07:18:39.392Z,47.09
2023-05-14T07:21:07.270Z,45.67
2023-05-14T07:23:36.546Z,46.09
2023-05-14T07:26:07.940Z,46.40
2023-05-14T07:28:35.820Z,45.86
2023-05-14T07:31:08.814Z,46.18
2023-05-14T07:33:38.628Z,45.98
2023-05-14T07:36:07.206Z,44.43
2023-05-14T07:38:35.421Z,44.26
2023-05-14T07:41:03.642Z,43.46
2023-05-14T07:43:31.680Z,43.60
2023-05-14T07:45:59.495Z,43.14
2023-05-14T07:48:27.308Z,43.59
2023-05-14T07:50:55.247Z,44.14
2023-05-14T07:53:23.637Z,43.22
2023-05-14T07:55:51.784Z,42.58
2023-05-14T07:58:20.073Z,43.23
2023-05-14T08:00:47.973Z,42.76
2023-05-14T08:03:16.023Z,43.58
2023-05-14T08:05:43.960Z,42.75
2023-05-14T08:08:12.498Z,43.28
2023-05-14T08:10:40.611Z,43.08
2023-05-14T08:13:08.429Z,42.98
2023-05-14T08:15:37.145Z,44.67
2023-05-14T08:18:05.592Z,47.60
2023-05-14T08:20:33.521Z,48.61
2023-05-14T08:23:01.493Z,48.37
2023-05-14T08:25:29.378Z,49.53
2023-05-14T08:27:59.634Z,49.36
2023-05-14T08:30:28.452Z,47.73
2023-05-14T08:32:56.631Z,48.23
2023-05-14T08:35:24.488Z,48.59
2023-05-14T08:37:52.347Z,50.53
2023-05-14T08:40:20.664Z,44.65
2023-05-14T08:42:49.325Z,46.94
2023-05-14T08:45:20.895Z,48.19
2023-05-14T08:47:50.989Z,48.72
2023-05-14T08:50:23.498Z,49.81
2023-05-14T08:52:51.895Z,48.49
2023-05-14T08:55:19.903Z,47.89
2023-05-14T08:57:49.012Z,46.54
2023-05-14T09:00:17.078Z,46.62
2023-05-14T09:02:46.548Z,46.83
2023-05-14T09:05:15.159Z,47.53
2023-05-14T09:07:43.245Z,44.95
2023-05-14T09:10:11.420Z,43.96
2023-05-14T09:12:39.276Z,46.83
2023-05-14T09:15:07.887Z,40.35
2023-05-14T09:17:35.855Z,43.94
2023-05-14T09:20:04.597Z,46.43
2023-05-14T09:22:32.930Z,48.43
2023-05-14T09:25:09.210Z,41.08
2023-05-14T09:27:37.093Z,42.78
2023-05-14T09:30:10.924Z,41.67
2023-05-14T09:32:42.461Z,35.76
2023-05-14T09:35:19.948Z,40.50
2023-05-14T09:37:51.180Z,38.41
2023-05-14T09:40:22.122Z,41.40
2023-05-14T09:42:50.378Z,39.41
2023-05-14T09:45:18.361Z,43.45
2023-05-14T09:47:46.508Z,42.26
2023-05-14T09:50:14.791Z,37.43
2023-05-14T09:52:42.655Z,35.79
2023-05-14T09:55:11.029Z,38.50
2023-05-14T09:57:39.906Z,41.26
2023-05-14T10:00:09.208Z,39.88
2023-05-14T10:02:38.857Z,40.84
2023-05-14T10:05:08.359Z,36.20
2023-05-14T10:07:48.643Z,40.27
2023-05-14T10:10:19.514Z,39.94
2023-05-14T10:13:04.327Z,36.23
2023-05-14T10:15:46.404Z,42.12
2023-05-14T10:18:22.330Z,42.57
2023-05-14T10:21:04.014Z,43.53
2023-05-14T10:23:32.058Z,41.10
2023-05-14T10:26:01.158Z,37.52
2023-05-14T10:28:29.804Z,36.12
2023-05-14T10:31:00.259Z,33.35
2023-05-14T10:33:28.508Z,33.33
2023-05-14T10:36:07.645Z,33.07
2023-05-14T10:38:37.843Z,35.86
2023-05-14T10:41:12.853Z,43.34
2023-05-14T10:43:42.095Z,42.17
2023-05-14T10:46:13.667Z,40.36
2023-05-14T10:48:43.231Z,37.32
2023-05-14T10:51:12.497Z,36.99
2023-05-14T10:53:42.988Z,37.77
2023-05-14T10:56:14.210Z,36.09
2023-05-14T10:58:45.088Z,36.07
2023-05-14T11:01:13.869Z,38.13
2023-05-14T11:03:45.284Z,36.35
2023-05-14T11:06:16.222Z,38.15
2023-05-14T11:08:46.253Z,32.84
2023-05-14T11:11:14.398Z,33.66
2023-05-14T11:13:42.657Z,33.19
2023-05-14T11:16:22.432Z,34.83
2023-05-14T11:19:03.603Z,35.66
2023-05-14T11:21:32.865Z,37.40
2023-05-14T11:24:01.588Z,38.85
2023-05-14T11:26:29.483Z,34.35
2023-05-14T11:28:57.409Z,37.50
2023-05-14T11:31:25.603Z,38.25
2023-05-14T11:33:54.262Z,36.75
2023-05-14T11:36:22.114Z,33.46
2023-05-14T11:38:51.488Z,33.34
2023-05-14T11:41:21.558Z,33.37
2023-05-14T11:43:49.787Z,35.39
2023-05-14T11:46:21.667Z,33.92
2023-05-14T11:48:51.014Z,33.17
2023-05-14T11:51:18.904Z,34.18
2023-05-14T11:53:47.161Z,35.41
2023-05-14T11:56:15.203Z,33.67
2023-05-14T11:58:48.956Z,36.03
2023-05-14T12:01:17.540Z,34.26
2023-05-14T12:03:50.448Z,37.05
2023-05-14T12:06:19.254Z,35.85
2023-05-14T12:08:49.310Z,34.84
2023-05-14T12:11:21.809Z,34.86
2023-05-14T12:13:49.651Z,35.71
2023-05-14T12:16:18.197Z,38.79
2023-05-14T12:18:46.270Z,38.24
2023-05-14T12:21:14.241Z,37.67
2023-05-14T12:23:42.104Z,37.56
2023-05-14T12:26:09.976Z,36.53
2023-05-14T12:28:46.632Z,38.72
2023-05-14T12:31:31.045Z,39.43
2023-05-14T12:33:58.900Z,39.82
2023-05-14T12:36:26.860Z,39.10
2023-05-14T12:39:03.780Z,39.48
2023-05-14T12:41:32.889Z,37.82
2023-05-14T12:44:00.860Z,36.77
2023-05-14T12:46:28.988Z,38.24
2023-05-14T12:48:57.208Z,36.15
2023-05-14T12:51:25.368Z,37.19
2023-05-14T12:53:54.247Z,34.46
2023-05-14T12:56:27.702Z,34.55
2023-05-14T12:58:56.424Z,36.84
2023-05-14T13:01:24.770Z,35.88
2023-05-14T13:03:52.836Z,35.84
2023-05-14T13:06:20.733Z,35.67
2023-05-14T13:08:48.517Z,37.64
2023-05-14T13:11:16.496Z,37.07
2023-05-14T13:13:44.333Z,37.33
2023-05-14T13:16:16.622Z,37.09
2023-05-14T13:18:44.541Z,37.31
2023-05-14T13:21:12.615Z,36.44
2023-05-14T13:23:40.364Z,37.75
2023-05-14T13:26:08.459Z,36.50
2023-05-14T13:28:36.306Z,35.77
2023-05-14T13:31:12.197Z,33.23
2023-05-14T13:33:43.128Z,34.26
2023-05-14T13:36:14.573Z,35.37
2023-05-14T13:38:42.418Z,34.69
2023-05-14T13:41:10.226Z,35.71
2023-05-14T13:43:38.056Z,34.82
2023-05-14T13:46:06.785Z,33.85
2023-05-14T13:48:37.018Z,34.94
2023-05-14T13:51:04.824Z,34.44
2023-05-14T13:53:32.609Z,34.38
2023-05-14T13:56:01.697Z,34.46
2023-05-14T13:58:30.029Z,34.82
2023-05-14T14:00:57.846Z,33.76
2023-05-14T14:03:25.589Z,33.70
2023-05-14T14:05:53.459Z,33.60
2023-05-14T14:08:24.384Z,33.88
2023-05-14T14:10:54.409Z,35.24
2023-05-14T14:13:22.943Z,35.73
2023-05-14T14:15:51.425Z,35.00
2023-05-14T14:18:19.528Z,35.54
2023-05-14T14:20:47.709Z,35.25
2023-05-14T14:23:15.512Z,35.18
2023-05-14T14:25:43.687Z,33.16
2023-05-14T14:28:11.444Z,32.63
2023-05-14T14:30:39.200Z,32.95
2023-05-14T14:33:07.399Z,32.80
2023-05-14T14:35:36.256Z,33.10
2023-05-14T14:38:04.238Z,34.30
2023-05-14T14:40:34.381Z,34.56
2023-05-14T14:43:02.309Z,35.65
2023-05-14T14:45:30.494Z,35.23
2023-05-14T14:48:28.187Z,36.33
2023-05-14T14:50:56.531Z,34.73
2023-05-14T14:53:25.022Z,35.38
2023-05-14T14:55:53.380Z,33.77
2023-05-14T14:58:22.719Z,31.35
2023-05-14T15:00:54.267Z,31.17
2023-05-14T15:03:24.218Z,30.83
2023-05-14T15:05:53.596Z,31.16
2023-05-14T15:08:27.541Z,32.04
2023-05-14T15:10:59.274Z,32.60
2023-05-14T15:13:27.225Z,33.12
2023-05-14T15:15:55.056Z,32.99
2023-05-14T15:18:22.914Z,34.15
2023-05-14T15:20:50.844Z,35.03
2023-05-14T15:23:21.164Z,36.95
2023-05-14T15:25:49.944Z,36.05
2023-05-14T15:28:17.796Z,36.12
2023-05-14T15:30:47.864Z,36.37
2023-05-14T15:33:19.617Z,35.44
2023-05-14T15:35:47.568Z,35.20
2023-05-14T15:38:18.029Z,35.39
2023-05-14T15:40:45.877Z,36.07
2023-05-14T15:43:13.757Z,35.42
2023-05-14T15:45:44.506Z,35.88
2023-05-14T15:48:12.373Z,35.58
2023-05-14T15:50:40.237Z,35.98
2023-05-14T15:53:08.802Z,37.14
2023-05-14T15:55:36.957Z,38.17
2023-05-14T15:58:04.763Z,38.49
2023-05-14T16:00:32.622Z,38.65
2023-05-14T16:03:00.617Z,38.87
2023-05-14T16:05:29.268Z,39.71
2023-05-14T16:07:57.177Z,39.54
2023-05-14T16:10:25.328Z,39.76
2023-05-14T16:12:53.437Z,39.64
2023-05-14T16:15:21.215Z,39.40
2023-05-14T16:17:50.421Z,39.27
2023-05-14T16:20:18.378Z,37.58
2023-05-14T16:22:46.189Z,38.25
2023-05-14T16:25:14.157Z,38.56
2023-05-14T16:27:42.109Z,39.17
2023-05-14T16:30:10.636Z,39.44
2023-05-14T16:32:38.498Z,39.87
2023-05-14T16:35:06.606Z,40.75
2023-05-14T16:37:34.486Z,40.36
2023-05-14T16:40:02.518Z,40.07
2023-05-14T16:42:30.764Z,38.89
2023-05-14T16:44:58.551Z,38.79
2023-05-14T16:47:26.411Z,38.88
2023-05-14T16:49:54.185Z,39.95
2023-05-14T16:52:21.981Z,40.56
2023-05-14T16:54:49.761Z,38.93
2023-05-14T16:57:17.532Z,38.58
2023-05-14T16:59:45.450Z,37.51
2023-05-14T17:02:13.393Z,37.54
2023-05-14T17:04:42.212Z,37.32
2023-05-14T17:07:10.355Z,37.02
2023-05-14T17:09:38.269Z,38.53
2023-05-14T17:12:11.074Z,38.39
2023-05-14T17:14:38.847Z,37.81
2023-05-14T17:17:06.645Z,38.10
2023-05-14T17:19:34.554Z,38.48
2023-05-14T17:22:05.766Z,38.62
2023-05-14T17:24:35.059Z,39.47
2023-05-14T17:27:03.107Z,39.33
2023-05-14T17:29:31.750Z,38.99
2023-05-14T17:31:59.954Z,39.37
2023-05-14T17:34:28.021Z,39.28
2023-05-14T17:36:56.085Z,39.51
2023-05-14T17:39:23.935Z,40.21
2023-05-14T17:41:52.395Z,40.86
2023-05-14T17:44:20.402Z,40.50
2023-05-14T17:46:49.706Z,40.73
2023-05-14T17:49:17.554Z,41.74
2023-05-14T17:51:45.348Z,41.15
2023-05-14T17:54:13.364Z,40.53
2023-05-14T17:56:41.536Z,40.63
2023-05-14T17:59:09.342Z,41.23
2023-05-14T18:01:37.200Z,41.68
2023-05-14T18:04:05.290Z,41.49
2023-05-14T18:06:33.309Z,41.96
2023-05-14T18:09:01.084Z,42.10
2023-05-14T18:11:34.655Z,42.60
2023-05-14T18:14:03.281Z,43.50
2023-05-14T18:16:31.151Z,43.15
2023-05-14T18:19:03.007Z,42.77
2023-05-14T18:21:31.508Z,42.49
2023-05-14T18:23:59.286Z,43.13
2023-05-14T18:26:27.263Z,43.21
2023-05-14T18:28:55.126Z,43.41
2023-05-14T18:31:22.983Z,44.08
2023-05-14T18:33:51.364Z,44.96
2023-05-14T18:36:19.872Z,44.91
2023-05-14T18:38:47.739Z,45.20
2023-05-14T18:41:15.519Z,45.47
2023-05-14T18:43:43.291Z,45.46
2023-05-14T18:46:12.307Z,46.07
2023-05-14T18:48:40.379Z,46.19
2023-05-14T18:51:11.291Z,45.75
2023-05-14T18:53:39.184Z,45.61
2023-05-14T18:56:07.628Z,45.90
2023-05-14T18:58:35.650Z,46.35
2023-05-14T19:01:03.591Z,46.52
2023-05-14T19:03:31.845Z,47.05
2023-05-14T19:05:59.745Z,47.37
2023-05-14T19:08:27.588Z,47.68
2023-05-14T19:10:55.484Z,47.97
2023-05-14T19:13:23.665Z,48.29
2023-05-14T19:15:51.649Z,48.34
2023-05-14T19:18:19.697Z,48.11
2023-05-14T19:20:47.455Z,48.27
2023-05-14T19:23:15.601Z,48.61
2023-05-14T19:25:43.578Z,48.30
2023-05-14T19:28:11.584Z,48.58
2023-05-14T19:30:39.744Z,48.43
2023-05-14T19:33:07.588Z,48.71
2023-05-14T19:35:35.770Z,48.45
2023-05-14T19:38:03.708Z,48.56
2023-05-14T19:40:31.593Z,48.83
2023-05-14T19:42:59.576Z,48.93
2023-05-14T19:45:27.510Z,48.88
2023-05-14T19:47:55.596Z,48.80
2023-05-14T19:50:23.397Z,48.98
2023-05-14T19:52:51.274Z,48.79
2023-05-14T19:55:19.104Z,48.95
2023-05-14T19:57:46.911Z,49.46
2023-05-14T20:00:15.116Z,49.68
2023-05-14T20:02:43.265Z,49.36
2023-05-14T20:05:11.450Z,49.70
2023-05-14T20:07:40.475Z,49.62
2023-05-14T20:10:09.361Z,49.47
2023-05-14T20:12:37.360Z,50.88
2023-05-14T20:15:05.766Z,51.49
2023-05-14T20:17:33.629Z,51.24
2023-05-14T20:20:01.417Z,51.03
2023-05-14T20:22:29.197Z,50.92
2023-05-14T20:24:57.033Z,51.70
2023-05-14T20:27:24.947Z,51.85
2023-05-14T20:29:54.050Z,52.51
2023-05-14T20:32:24.804Z,52.53
2023-05-14T20:34:53.197Z,52.68
2023-05-14T20:37:21.537Z,52.72
2023-05-14T20:39:49.486Z,52.28
2023-05-14T20:42:17.292Z,52.25
2023-05-14T20:44:45.172Z,52.21
2023-05-14T20:47:16.321Z,52.31
2023-05-14T20:49:44.217Z,52.11
2023-05-14T20:52:15.915Z,52.74
2023-05-14T20:54:44.004Z,53.83
2023-05-14T20:57:12.889Z,53.51
2023-05-14T20:59:40.852Z,53.39
2023-05-14T21:02:09.190Z,52.81
2023-05-14T21:04:37.317Z,52.32
2023-05-14T21:07:06.233Z,52.25
2023-05-14T21:09:34.087Z,52.77
2023-05-14T21:12:01.896Z,53.22
2023-05-14T21:14:29.698Z,53.52
2023-05-14T21:16:57.608Z,53.06
2023-05-14T21:19:25.571Z,53.10
2023-05-14T21:21:53.391Z,52.74
2023-05-14T21:24:21.231Z,52.86
2023-05-14T21:26:49.074Z,53.32
2023-05-14T21:29:17.294Z,52.85
2023-05-14T21:31:45.236Z,52.66
2023-05-14T21:34:13.015Z,52.87
2023-05-14T21:36:40.880Z,52.96
2023-05-14T21:39:08.616Z,52.97
2023-05-14T21:41:36.460Z,52.94
2023-05-14T21:44:04.278Z,53.00
2023-05-14T21:46:32.140Z,53.13
2023-05-14T21:49:00.076Z,53.15
2023-05-14T21:51:28.058Z,53.28
2023-05-14T21:53:55.866Z,53.49
2023-05-14T21:56:24.020Z,53.84
2023-05-14T21:58:51.829Z,53.87
2023-05-14T22:01:19.641Z,53.46
2023-05-14T22:03:47.476Z,53.26
2023-05-14T22:06:15.399Z,53.53
2023-05-14T22:08:43.155Z,53.85
2023-05-14T22:11:10.939Z,53.85
2023-05-14T22:13:40.912Z,53.85
2023-05-14T22:16:13.231Z,53.32
2023-05-14T22:18:42.542Z,53.32
2023-05-14T22:21:10.439Z,53.08
2023-05-14T22:23:38.245Z,53.19
2023-05-14T22:26:06.083Z,53.07
2023-05-14T22:28:33.877Z,53.17
2023-05-14T22:31:02.177Z,53.10
2023-05-14T22:33:31.622Z,52.66
2023-05-14T22:35:59.416Z,52.64
2023-05-14T22:38:27.177Z,52.55
2023-05-14T22:40:55.088Z,52.34
2023-05-14T22:43:22.904Z,52.35
2023-05-14T22:45:50.897Z,52.87
2023-05-14T22:48:18.790Z,53.19
2023-05-14T22:50:46.565Z,53.09
2023-05-14T22:53:14.434Z,53.10
2023-05-14T22:55:42.328Z,52.98
2023-05-14T22:58:10.223Z,52.92
2023-05-14T23:00:38.017Z,52.95
2023-05-14T23:03:06.078Z,52.91
2023-05-14T23:05:33.972Z,53.15
2023-05-14T23:08:01.867Z,53.19
2023-05-14T23:10:29.645Z,53.32
2023-05-14T23:12:57.448Z,53.55
2023-05-14T23:15:25.445Z,53.76
2023-05-14T23:17:53.770Z,53.83
2023-05-14T23:20:21.835Z,53.94
2023-05-14T23:22:49.676Z,53.89
2023-05-14T23:25:17.505Z,54.04
2023-05-14T23:27:45.648Z,54.35
2023-05-14T23:30:13.614Z,54.43
2023-05-14T23:32:41.459Z,54.60
2023-05-14T23:35:10.042Z,54.80
2023-05-14T23:37:42.437Z,55.17
2023-05-14T23:40:11.020Z,55.30
2023-05-14T23:42:38.895Z,55.08
2023-05-14T23:45:07.971Z,55.02
2023-05-14T23:47:36.126Z,55.60
2023-05-14T23:50:04.630Z,55.52
2023-05-14T23:52:33.100Z,55.73
2023-05-14T23:55:00.915Z,56.20
2023-05-14T23:57:28.905Z,55.79
2023-05-14T23:59:56.810Z,55.44
